createdAt,value
2023-01-04T00:04:24.742Z,24.50
2023-01-04T00:14:27.987Z,19.20
2023-01-04T00:24:30.373Z,21.50
2023-01-04T00:34:32.952Z,22.10
2023-01-04T00:44:35.726Z,20.30
2023-01-04T00:54:38.245Z,22.00
2023-01-04T01:04:40.905Z,25.00
2023-01-04T01:14:43.431Z,25.70
2023-01-04T01:24:45.967Z,23.60
2023-01-04T01:34:48.314Z,19.60
2023-01-04T01:45:03.989Z,19.90
2023-01-04T01:55:11.639Z,18.90
2023-01-04T02:05:14.146Z,17.10
2023-01-04T02:15:17.084Z,14.70
2023-01-04T02:25:40.705Z,13.40
2023-01-04T02:36:13.967Z,16.50
2023-01-04T02:46:32.783Z,12.90
2023-01-04T02:57:08.779Z,12.20
2023-01-04T03:07:25.931Z,12.70
2023-01-04T03:17:36.612Z,13.40
2023-01-04T03:28:01.202Z,12.60
2023-01-04T03:38:44.375Z,11.60
2023-01-04T03:49:21.866Z,12.10
2023-01-04T03:59:24.203Z,12.40
2023-01-04T04:09:26.471Z,12.60
2023-01-04T04:19:28.740Z,12.40
2023-01-04T04:29:30.999Z,10.80
2023-01-04T04:39:33.253Z,14.30
2023-01-04T04:49:35.587Z,15.10
2023-01-04T04:59:37.885Z,14.20
2023-01-04T05:09:40.122Z,12.80
2023-01-04T05:19:42.409Z,13.70
2023-01-04T05:30:03.663Z,14.60
2023-01-04T05:40:06.300Z,13.30
2023-01-04T05:50:10.279Z,13.90
2023-01-04T06:00:14.329Z,13.40
2023-01-04T06:10:17.514Z,15.00
2023-01-04T06:20:19.788Z,17.90
2023-01-04T06:30:22.027Z,20.20
2023-01-04T06:40:24.438Z,21.20
2023-01-04T06:50:26.771Z,26.60
2023-01-04T07:00:29.500Z,25.30
2023-01-04T07:10:31.934Z,23.80
2023-01-04T07:20:43.555Z,22.20
2023-01-04T07:30:45.887Z,22.00
2023-01-04T07:40:55.854Z,24.80
2023-01-04T07:50:59.329Z,20.10
2023-01-04T08:01:19.337Z,19.20
2023-01-04T08:11:24.746Z,19.20
2023-01-04T08:21:30.359Z,19.80
2023-01-04T08:31:33.568Z,17.60
2023-01-04T08:42:18.717Z,24.80
2023-01-04T08:52:15.397Z,26.10
2023-01-04T09:02:22.807Z,25.80
2023-01-04T09:12:25.331Z,30.20
2023-01-04T09:22:27.995Z,22.70
2023-01-04T09:32:30.520Z,28.50
2023-01-04T09:42:43.741Z,22.50
2023-01-04T09:53:04.858Z,14.50
2023-01-04T10:03:15.892Z,15.90
2023-01-04T10:13:31.024Z,13.70
2023-01-04T10:24:21.385Z,12.40
2023-01-04T10:34:32.890Z,14.70
2023-01-04T10:44:52.121Z,13.10
2023-01-04T10:55:15.759Z,5.70
2023-01-04T11:05:27.163Z,5.40
2023-01-04T11:15:31.630Z,5.00
2023-01-04T11:25:40.971Z,4.80
2023-01-04T11:35:46.140Z,5.00
2023-01-04T11:46:00.982Z,5.40
2023-01-04T11:56:24.029Z,5.00
2023-01-04T12:06:36.554Z,4.20
2023-01-04T12:17:05.184Z,3.10
2023-01-04T12:27:14.251Z,5.00
2023-01-04T12:37:40.306Z,2.50
2023-01-04T12:48:02.360Z,2.30
2023-01-04T12:59:23.643Z,2.30
2023-01-04T13:08:53.092Z,2.70
2023-01-04T13:19:00.903Z,2.70
2023-01-04T13:29:20.044Z,2.20
2023-01-04T13:39:29.427Z,2.10
2023-01-04T13:49:39.241Z,2.30
2023-01-04T13:59:41.974Z,2.90
2023-01-04T14:09:54.124Z,4.30
2023-01-04T14:20:18.583Z,3.10
2023-01-04T14:30:20.982Z,3.90
2023-01-04T14:40:23.463Z,2.80
2023-01-04T14:50:26.411Z,6.50
2023-01-04T15:00:29.964Z,3.30
2023-01-04T15:10:33.566Z,3.60
2023-01-04T15:20:41.589Z,3.60
2023-01-04T15:30:56.438Z,3.30
2023-01-04T15:41:01.022Z,3.60
2023-01-04T15:51:07.341Z,6.20
2023-01-04T16:01:11.549Z,4.40
2023-01-04T16:11:22.962Z,4.10
2023-01-04T16:21:28.073Z,2.00
2023-01-04T16:31:45.229Z,2.80
2023-01-04T16:42:04.321Z,2.50
2023-01-04T16:52:12.948Z,2.50
2023-01-04T17:02:15.847Z,3.20
2023-01-04T17:12:46.416Z,3.80
2023-01-04T17:22:42.031Z,2.60
2023-01-04T17:32:45.206Z,2.70
2023-01-04T17:42:48.628Z,3.60
2023-01-04T17:52:52.942Z,2.40
2023-01-04T18:02:59.228Z,3.00
2023-01-04T18:13:06.595Z,3.00
2023-01-04T18:23:19.005Z,4.00
2023-01-04T18:33:28.781Z,3.00
2023-01-04T18:43:34.165Z,2.90
2023-01-04T18:53:40.806Z,3.50
2023-01-04T19:03:53.694Z,3.70
2023-01-04T19:14:11.916Z,2.80
2023-01-04T19:24:15.884Z,3.10
2023-01-04T19:34:21.600Z,2.70
2023-01-04T19:44:32.129Z,2.50
2023-01-04T19:54:37.718Z,2.10
2023-01-04T20:04:44.396Z,2.40
2023-01-04T20:14:52.618Z,1.80
2023-01-04T20:24:59.924Z,2.80
2023-01-04T20:35:05.962Z,2.20
2023-01-04T20:45:10.913Z,1.80
2023-01-04T20:55:17.733Z,1.20
2023-01-04T21:05:24.481Z,1.20
2023-01-04T21:15:27.738Z,1.30
2023-01-04T21:25:33.522Z,1.30
2023-01-04T21:35:38.093Z,1.70
2023-01-04T21:45:41.197Z,1.30
2023-01-04T21:55:43.985Z,1.80
2023-01-04T22:05:48.377Z,1.50
2023-01-04T22:15:51.788Z,1.20
2023-01-04T22:25:56.470Z,1.00
2023-01-04T22:36:03.455Z,1.10
2023-01-04T22:46:08.314Z,0.90
2023-01-04T22:56:20.042Z,1.00
2023-01-04T23:06:25.137Z,1.00
2023-01-04T23:16:32.348Z,1.00
2023-01-04T23:26:35.634Z,1.00
2023-01-04T23:36:39.702Z,0.90
2023-01-04T23:46:42.647Z,0.80
2023-01-04T23:56:45.304Z,0.80
